Costa Luminosa — ICGU — position and weather

sailwx.info

Track history (hours):
 
Tides and Currents Weather Stations Pressure Air Temp Water Temp Dewpoint Dewpoint Depression Visibility Wind Speed Wind Dir Waves Ship Positions

Costa Luminosa

Last reported at 2017-Apr-24 21:14 UTC. Time now 2017-Apr-27 18:51 UTC.
Position N 37°49' E 016°08'.

Length 294 m; draft 8 m.

Type: Passenger vessel. MMSI: 247257900.

Date/timePositionNaut miles runAvg speedWind from/ knotsBaromVisibWave heightAir tempDewpointWater temp
2017-Apr-24 21:14N 37°49' E 016°08'618.2
2017-Apr-24 20:53N 37°49' E 016°00'818.0
2017-Apr-24 20:28N 37°49' E 015°51'817.5
2017-Apr-24 20:01N 37°51' E 015°41'918.1
2017-Apr-24 19:31N 37°59' E 015°35'816.8
2017-Apr-24 19:00N 38°07' E 015°35'5 9.6
2017-Apr-24 18:30N 38°12' E 015°34'1 1.0
2017-Apr-24 17:57N 38°11' E 015°33'0 0.0
2017-Apr-24 17:27N 38°11' E 015°33'0 0.0
2017-Apr-24 16:57N 38°11' E 015°33'0 0.0
2017-Apr-24 16:27N 38°11' E 015°33'0 0.0
2017-Apr-24 15:57N 38°11' E 015°33'0 0.0
2017-Apr-24 15:27N 38°11' E 015°33'0 0.0
2017-Apr-24 14:57N 38°11' E 015°33'0 0.0
2017-Apr-24 14:27N 38°11' E 015°33'0 0.0
2017-Apr-24 13:27N 38°11' E 015°33'0 0.0
2017-Apr-24 12:57N 38°11' E 015°33'0 0.0
2017-Apr-24 12:27N 38°11' E 015°33'0 0.0
2017-Apr-24 11:57N 38°11' E 015°33'0 0.0
2017-Apr-24 11:27N 38°11' E 015°33'0 0.0
2017-Apr-24 10:57N 38°11' E 015°33'0 0.0
2017-Apr-24 10:27N 38°11' E 015°33'0 0.1
2017-Apr-24 10:00N 38°11' E 015°34'611.2
2017-Apr-24 09:30N 38°15' E 015°39'612.5
2017-Apr-24 09:00N 38°21' E 015°37'917.9
2017-Apr-24 08:30N 38°28' E 015°29'918.0
2017-Apr-24 08:01N 38°34' E 015°21'918.1
2017-Apr-24 07:30N 38°41' E 015°13'917.9
2017-Apr-24 07:00N 38°47' E 015°05'1018.3
2017-Apr-24 06:29N 38°55' E 014°57'7318.1
2017-Apr-24 02:28N 39°50' E 013°56'212 8.6
2017-Apr-23 01:58N 42°21' E 010°39'816.7
2017-Apr-23 01:30N 42°26' E 010°31'916.7
2017-Apr-23 00:59N 42°31' E 010°22'1216.8
2017-Apr-23 00:16N 42°39' E 010°09'1616.8
2017-Apr-22 23:19N 42°47' E 009°51'1415.7
2017-Apr-22 22:27N 42°56' E 009°36'716.1
2017-Apr-22 22:01N 43°03' E 009°35'816.2
2017-Apr-22 21:30N 43°10' E 009°29'816.0
2017-Apr-22 21:01N 43°16' E 009°23'815.8
2017-Apr-22 20:31N 43°23' E 009°18'815.8
2017-Apr-22 20:01N 43°30' E 009°12'815.7
2017-Apr-22 19:31N 43°37' E 009°06'815.8
2017-Apr-22 19:00N 43°43' E 009°01'815.6
2017-Apr-22 18:31N 43°50' E 008°55'815.2
2017-Apr-22 18:01N 43°57' E 008°50'815.6
2017-Apr-22 17:31N 44°03' E 008°44'815.6
2017-Apr-22 17:01N 44°11' E 008°40'713.3
2017-Apr-22 16:31N 44°17' E 008°36'510.0
2017-Apr-22 16:01N 44°19' E 008°30'1 1.6
2017-Apr-22 15:30N 44°19' E 008°29'0 0.0
2017-Apr-22 15:00N 44°19' E 008°29'0 0.0
2017-Apr-22 14:30N 44°19' E 008°29'0 0.0
2017-Apr-22 13:30N 44°19' E 008°29'0 0.0
2017-Apr-22 13:00N 44°19' E 008°29'0 0.0
2017-Apr-22 12:30N 44°19' E 008°29'0 0.0
2017-Apr-22 12:00N 44°19' E 008°29'0 0.0
2017-Apr-22 11:30N 44°19' E 008°29'0 0.0
2017-Apr-22 11:00N 44°19' E 008°29'0 0.0
2017-Apr-22 10:30N 44°19' E 008°29'0 0.0
2017-Apr-22 10:00N 44°19' E 008°29'0 0.0
2017-Apr-22 09:30N 44°19' E 008°29'0 0.0
2017-Apr-22 09:00N 44°19' E 008°29'0 0.0
2017-Apr-22 08:30N 44°19' E 008°29'0 0.0
2017-Apr-22 08:00N 44°19' E 008°29'0 0.0
2017-Apr-22 07:30N 44°19' E 008°29'0 0.0
2017-Apr-22 07:00N 44°19' E 008°29'0 0.0
2017-Apr-22 06:30N 44°19' E 008°29'0 0.0
2017-Apr-22 06:00N 44°19' E 008°29'0 0.4
2017-Apr-22 05:31N 44°19' E 008°29'2 4.6
2017-Apr-22 05:00N 44°18' E 008°32'917.7
2017-Apr-22 04:30N 44°10' E 008°39'918.4
2017-Apr-22 04:00N 44°03' E 008°47'918.6
2017-Apr-22 03:30N 43°55' E 008°53'918.7
2017-Apr-22 03:00N 43°47' E 009°00'918.2
2017-Apr-22 02:30N 43°39' E 009°07'918.2
2017-Apr-22 02:00N 43°31' E 009°14'918.4
2017-Apr-22 01:31N 43°24' E 009°20'918.4
2017-Apr-22 01:00N 43°16' E 009°26'918.3
2017-Apr-22 00:31N 43°07' E 009°31'917.3
2017-Apr-22 00:00N 43°00' E 009°39'1118.0
2017-Apr-21 23:23N 42°51' E 009°47'818.7
2017-Apr-21 22:57N 42°46' E 009°56'818.1
2017-Apr-21 22:30N 42°41' E 010°05'917.6
2017-Apr-21 22:00N 42°36' E 010°14'1217.8
2017-Apr-21 21:22N 42°28' E 010°26'817.8
2017-Apr-21 20:56N 42°23' E 010°34'29310.0
2017-Apr-20 15:46N 38°52' E 015°00'618.8
2017-Apr-20 15:28N 38°48' E 015°05'918.7
2017-Apr-20 15:00N 38°41' E 015°13'918.6
2017-Apr-20 14:30N 38°35' E 015°22'1919.0
2017-Apr-20 13:31N 38°23' E 015°40'714.6
2017-Apr-20 13:01N 38°16' E 015°41'714.8
2017-Apr-20 12:31N 38°09' E 015°36'916.9
2017-Apr-20 12:00N 38°01' E 015°36'917.2
2017-Apr-20 11:31N 37°54' E 015°42'1019.0
2017-Apr-20 10:59N 37°50' E 015°53'1019.2
2017-Apr-20 10:29N 37°47' E 016°05'  
2017-Apr-17 23:13N 32°51' E 030°16'412.0
2017-Apr-17 22:55N 32°48' E 030°20'1813.0
2017-Apr-17 21:34N 32°38' E 030°36'114.9
2017-Apr-17 21:30N 32°37' E 030°37'714.8
2017-Apr-17 21:00N 32°32' E 030°44'914.9
2017-Apr-17 20:24N 32°27' E 030°52'1916.2
2017-Apr-17 19:15N 32°15' E 031°10'513.9
2017-Apr-17 18:55N 32°13' E 031°14'614.3
2017-Apr-17 18:29N 32°09' E 031°20'714.1
2017-Apr-17 17:59N 32°04' E 031°26'714.1
2017-Apr-17 17:30N 32°00' E 031°33'714.0
2017-Apr-17 17:00N 31°57' E 031°40'714.0
2017-Apr-17 16:30N 31°53' E 031°47'813.9
2017-Apr-17 15:56N 31°48' E 031°54'4012.6
2017-Apr-17 12:46N 31°15' E 032°21'3 9.7
2017-Apr-17 12:30N 31°13' E 032°20'4 7.7
2017-Apr-17 12:00N 31°09' E 032°19'4 8.9
2017-Apr-17 11:30N 31°05' E 032°19'5 9.7
2017-Apr-17 11:00N 30°60' E 032°19'5 9.8
2017-Apr-17 10:30N 30°55' E 032°19'  
Track history (hours):
 
Tides and Currents Weather Stations Pressure Air Temp Water Temp Dewpoint Dewpoint Depression Visibility Wind Speed Wind Dir Waves Ship Positions

Costa Luminosa

Last reported at 2017-Apr-24 21:14 UTC. Time now 2017-Apr-27 18:51 UTC.
Position N 37°49' E 016°08'.

Length 294 m; draft 8 m.

Type: Passenger vessel. MMSI: 247257900.

Date/timePositionNaut miles runAvg speedWind from/ knotsBaromVisibWave heightAir tempDewpointWater temp
2017-Apr-24 21:14N 37°49' E 016°08'618.2
2017-Apr-24 20:53N 37°49' E 016°00'818.0
2017-Apr-24 20:28N 37°49' E 015°51'817.5
2017-Apr-24 20:01N 37°51' E 015°41'918.1
2017-Apr-24 19:31N 37°59' E 015°35'816.8
2017-Apr-24 19:00N 38°07' E 015°35'5 9.6
2017-Apr-24 18:30N 38°12' E 015°34'1 1.0
2017-Apr-24 17:57N 38°11' E 015°33'0 0.0
2017-Apr-24 17:27N 38°11' E 015°33'0 0.0
2017-Apr-24 16:57N 38°11' E 015°33'0 0.0
2017-Apr-24 16:27N 38°11' E 015°33'0 0.0
2017-Apr-24 15:57N 38°11' E 015°33'0 0.0
2017-Apr-24 15:27N 38°11' E 015°33'0 0.0
2017-Apr-24 14:57N 38°11' E 015°33'0 0.0
2017-Apr-24 14:27N 38°11' E 015°33'0 0.0
2017-Apr-24 13:27N 38°11' E 015°33'0 0.0
2017-Apr-24 12:57N 38°11' E 015°33'0 0.0
2017-Apr-24 12:27N 38°11' E 015°33'0 0.0
2017-Apr-24 11:57N 38°11' E 015°33'0 0.0
2017-Apr-24 11:27N 38°11' E 015°33'0 0.0
2017-Apr-24 10:57N 38°11' E 015°33'0 0.0
2017-Apr-24 10:27N 38°11' E 015°33'0 0.1
2017-Apr-24 10:00N 38°11' E 015°34'611.2
2017-Apr-24 09:30N 38°15' E 015°39'612.5
2017-Apr-24 09:00N 38°21' E 015°37'917.9
2017-Apr-24 08:30N 38°28' E 015°29'918.0
2017-Apr-24 08:01N 38°34' E 015°21'918.1
2017-Apr-24 07:30N 38°41' E 015°13'917.9
2017-Apr-24 07:00N 38°47' E 015°05'1018.3
2017-Apr-24 06:29N 38°55' E 014°57'7318.1
2017-Apr-24 02:28N 39°50' E 013°56'212 8.6
2017-Apr-23 01:58N 42°21' E 010°39'816.7
2017-Apr-23 01:30N 42°26' E 010°31'916.7
2017-Apr-23 00:59N 42°31' E 010°22'1216.8
2017-Apr-23 00:16N 42°39' E 010°09'1616.8
2017-Apr-22 23:19N 42°47' E 009°51'1415.7
2017-Apr-22 22:27N 42°56' E 009°36'716.1
2017-Apr-22 22:01N 43°03' E 009°35'816.2
2017-Apr-22 21:30N 43°10' E 009°29'816.0
2017-Apr-22 21:01N 43°16' E 009°23'815.8
2017-Apr-22 20:31N 43°23' E 009°18'815.8
2017-Apr-22 20:01N 43°30' E 009°12'815.7
2017-Apr-22 19:31N 43°37' E 009°06'815.8
2017-Apr-22 19:00N 43°43' E 009°01'815.6
2017-Apr-22 18:31N 43°50' E 008°55'815.2
2017-Apr-22 18:01N 43°57' E 008°50'815.6
2017-Apr-22 17:31N 44°03' E 008°44'815.6
2017-Apr-22 17:01N 44°11' E 008°40'713.3
2017-Apr-22 16:31N 44°17' E 008°36'510.0
2017-Apr-22 16:01N 44°19' E 008°30'1 1.6
2017-Apr-22 15:30N 44°19' E 008°29'0 0.0
2017-Apr-22 15:00N 44°19' E 008°29'0 0.0
2017-Apr-22 14:30N 44°19' E 008°29'0 0.0
2017-Apr-22 13:30N 44°19' E 008°29'0 0.0
2017-Apr-22 13:00N 44°19' E 008°29'0 0.0
2017-Apr-22 12:30N 44°19' E 008°29'0 0.0
2017-Apr-22 12:00N 44°19' E 008°29'0 0.0
2017-Apr-22 11:30N 44°19' E 008°29'0 0.0
2017-Apr-22 11:00N 44°19' E 008°29'0 0.0
2017-Apr-22 10:30N 44°19' E 008°29'0 0.0
2017-Apr-22 10:00N 44°19' E 008°29'0 0.0
2017-Apr-22 09:30N 44°19' E 008°29'0 0.0
2017-Apr-22 09:00N 44°19' E 008°29'0 0.0
2017-Apr-22 08:30N 44°19' E 008°29'0 0.0
2017-Apr-22 08:00N 44°19' E 008°29'0 0.0
2017-Apr-22 07:30N 44°19' E 008°29'0 0.0
2017-Apr-22 07:00N 44°19' E 008°29'0 0.0
2017-Apr-22 06:30N 44°19' E 008°29'0 0.0
2017-Apr-22 06:00N 44°19' E 008°29'0 0.4
2017-Apr-22 05:31N 44°19' E 008°29'2 4.6
2017-Apr-22 05:00N 44°18' E 008°32'917.7
2017-Apr-22 04:30N 44°10' E 008°39'918.4
2017-Apr-22 04:00N 44°03' E 008°47'918.6
2017-Apr-22 03:30N 43°55' E 008°53'918.7
2017-Apr-22 03:00N 43°47' E 009°00'918.2
2017-Apr-22 02:30N 43°39' E 009°07'918.2
2017-Apr-22 02:00N 43°31' E 009°14'918.4
2017-Apr-22 01:31N 43°24' E 009°20'918.4
2017-Apr-22 01:00N 43°16' E 009°26'918.3
2017-Apr-22 00:31N 43°07' E 009°31'917.3
2017-Apr-22 00:00N 43°00' E 009°39'1118.0
2017-Apr-21 23:23N 42°51' E 009°47'818.7
2017-Apr-21 22:57N 42°46' E 009°56'818.1
2017-Apr-21 22:30N 42°41' E 010°05'917.6
2017-Apr-21 22:00N 42°36' E 010°14'1217.8
2017-Apr-21 21:22N 42°28' E 010°26'817.8
2017-Apr-21 20:56N 42°23' E 010°34'29310.0
2017-Apr-20 15:46N 38°52' E 015°00'618.8
2017-Apr-20 15:28N 38°48' E 015°05'918.7
2017-Apr-20 15:00N 38°41' E 015°13'918.6
2017-Apr-20 14:30N 38°35' E 015°22'1919.0
2017-Apr-20 13:31N 38°23' E 015°40'714.6
2017-Apr-20 13:01N 38°16' E 015°41'714.8
2017-Apr-20 12:31N 38°09' E 015°36'916.9
2017-Apr-20 12:00N 38°01' E 015°36'917.2
2017-Apr-20 11:31N 37°54' E 015°42'1019.0
2017-Apr-20 10:59N 37°50' E 015°53'1019.2
2017-Apr-20 10:29N 37°47' E 016°05'  
2017-Apr-17 23:13N 32°51' E 030°16'412.0
2017-Apr-17 22:55N 32°48' E 030°20'1813.0
2017-Apr-17 21:34N 32°38' E 030°36'114.9
2017-Apr-17 21:30N 32°37' E 030°37'714.8
2017-Apr-17 21:00N 32°32' E 030°44'914.9
2017-Apr-17 20:24N 32°27' E 030°52'1916.2
2017-Apr-17 19:15N 32°15' E 031°10'513.9
2017-Apr-17 18:55N 32°13' E 031°14'614.3
2017-Apr-17 18:29N 32°09' E 031°20'714.1
2017-Apr-17 17:59N 32°04' E 031°26'714.1
2017-Apr-17 17:30N 32°00' E 031°33'714.0
2017-Apr-17 17:00N 31°57' E 031°40'714.0
2017-Apr-17 16:30N 31°53' E 031°47'813.9
2017-Apr-17 15:56N 31°48' E 031°54'4012.6
2017-Apr-17 12:46N 31°15' E 032°21'3 9.7
2017-Apr-17 12:30N 31°13' E 032°20'4 7.7
2017-Apr-17 12:00N 31°09' E 032°19'4 8.9
2017-Apr-17 11:30N 31°05' E 032°19'5 9.7
2017-Apr-17 11:00N 30°60' E 032°19'5 9.8
2017-Apr-17 10:30N 30°55' E 032°19'  

Dump ship's entire track history